createdAt,value
2016-05-23T00:00:07.869Z,0
2016-05-23T00:01:07.872Z,0
2016-05-23T00:02:07.875Z,0
2016-05-23T00:03:07.893Z,0
2016-05-23T00:04:07.911Z,0
2016-05-23T00:05:07.883Z,0
2016-05-23T00:06:07.729Z,0
2016-05-23T00:07:07.731Z,0
2016-05-23T00:08:07.734Z,0
2016-05-23T00:09:07.909Z,0
2016-05-23T00:10:07.912Z,0
2016-05-23T00:11:07.742Z,0
2016-05-23T00:12:07.902Z,0
2016-05-23T00:13:07.748Z,0
2016-05-23T00:14:08.282Z,0
2016-05-23T00:15:07.909Z,0
2016-05-23T00:16:07.912Z,0
2016-05-23T00:17:07.931Z,0
2016-05-23T00:18:07.933Z,0
2016-05-23T00:19:07.920Z,0
2016-05-23T00:20:07.924Z,0
2016-05-23T00:21:07.785Z,0
2016-05-23T00:22:07.913Z,0
2016-05-23T00:23:07.618Z,0
2016-05-23T00:24:07.950Z,0
2016-05-23T00:25:07.937Z,0
2016-05-23T00:26:07.782Z,0
2016-05-23T00:27:07.849Z,0
2016-05-23T00:28:07.928Z,0
2016-05-23T00:29:07.995Z,0
2016-05-23T00:30:07.778Z,0
2016-05-23T00:31:07.937Z,0
2016-05-23T00:32:07.940Z,0
2016-05-23T00:33:07.942Z,0
2016-05-23T00:34:07.961Z,0
2016-05-23T00:35:07.807Z,0
2016-05-23T00:36:07.950Z,0
2016-05-23T00:37:07.953Z,0
2016-05-23T00:38:07.956Z,0
2016-05-23T00:39:07.975Z,0
2016-05-23T00:40:07.961Z,0
2016-05-23T00:41:07.964Z,0
2016-05-23T00:42:07.982Z,0
2016-05-23T00:43:07.828Z,0
2016-05-23T00:44:08.081Z,0
2016-05-23T00:45:07.834Z,0
2016-05-23T00:46:07.977Z,0
2016-05-23T00:47:07.980Z,0
2016-05-23T00:48:07.983Z,0
2016-05-23T00:49:08.001Z,0
2016-05-23T00:50:08.019Z,0
2016-05-23T00:51:07.835Z,0
2016-05-23T00:52:07.978Z,0
2016-05-23T00:53:08.012Z,0
2016-05-23T00:54:07.998Z,0
2016-05-23T00:55:08.002Z,0
2016-05-23T00:56:08.004Z,0
2016-05-23T00:57:08.022Z,0
2016-05-23T00:58:07.854Z,0
2016-05-23T00:59:08.309Z,0
2016-05-23T01:00:08.015Z,0
2016-05-23T01:01:07.845Z,0
2016-05-23T01:02:08.021Z,0
2016-05-23T01:03:08.023Z,0
2016-05-23T01:04:08.025Z,0
2016-05-23T01:05:08.045Z,0
2016-05-23T01:06:08.031Z,0
2016-05-23T01:07:08.018Z,0
2016-05-23T01:08:08.036Z,0
2016-05-23T01:09:07.914Z,0
2016-05-23T01:10:07.948Z,0
2016-05-23T01:11:08.044Z,0
2016-05-23T01:12:08.031Z,0
2016-05-23T01:13:07.878Z,0
2016-05-23T01:14:08.162Z,0
2016-05-23T01:15:08.039Z,0
2016-05-23T01:16:08.042Z,0
2016-05-23T01:17:08.030Z,0
2016-05-23T01:18:08.047Z,0
2016-05-23T01:19:07.894Z,0
2016-05-23T01:20:08.053Z,0
2016-05-23T01:21:08.056Z,0
2016-05-23T01:22:07.902Z,0
2016-05-23T01:23:08.046Z,0
2016-05-23T01:24:07.923Z,0
2016-05-23T01:25:08.051Z,0
2016-05-23T01:26:08.069Z,0
2016-05-23T01:27:08.071Z,0
2016-05-23T01:28:07.919Z,0
2016-05-23T01:29:08.249Z,0
2016-05-23T01:30:07.908Z,0
2016-05-23T01:31:08.067Z,0
2016-05-23T01:32:07.914Z,0
2016-05-23T01:33:07.932Z,0
2016-05-23T01:34:07.778Z,0
2016-05-23T01:35:07.937Z,0
2016-05-23T01:36:07.925Z,0
2016-05-23T01:37:08.083Z,0
2016-05-23T01:38:07.773Z,0
2016-05-23T01:39:08.088Z,0
2016-05-23T01:40:07.936Z,0
2016-05-23T01:41:07.938Z,0
2016-05-23T01:42:08.097Z,0
2016-05-23T01:43:08.100Z,0
2016-05-23T01:44:08.274Z,0
2016-05-23T01:45:08.105Z,0
2016-05-23T01:46:08.092Z,0
2016-05-23T01:47:08.110Z,0
2016-05-23T01:48:08.097Z,0
2016-05-23T01:49:07.960Z,0
2016-05-23T01:50:08.102Z,0
2016-05-23T01:51:07.965Z,0
2016-05-23T01:52:08.108Z,0
2016-05-23T01:53:08.110Z,0
2016-05-23T01:54:08.113Z,0
2016-05-23T01:55:07.960Z,0
2016-05-23T01:56:08.119Z,0
2016-05-23T01:57:08.121Z,0
2016-05-23T01:58:08.140Z,0
2016-05-23T01:59:08.002Z,0
2016-05-23T02:00:07.973Z,0
2016-05-23T02:01:08.132Z,0
2016-05-23T02:02:07.978Z,0
2016-05-23T02:03:07.982Z,0
2016-05-23T02:04:07.968Z,0
2016-05-23T02:05:08.142Z,0
2016-05-23T02:06:08.006Z,0
2016-05-23T02:07:08.164Z,0
2016-05-23T02:08:08.150Z,0
2016-05-23T02:09:08.139Z,0
2016-05-23T02:10:08.142Z,0
2016-05-23T02:11:08.144Z,0
2016-05-23T02:12:08.147Z,0
2016-05-23T02:13:08.024Z,0
2016-05-23T02:14:08.369Z,0
2016-05-23T02:15:08.155Z,0
2016-05-23T02:16:08.141Z,0
2016-05-23T02:17:08.160Z,0
2016-05-23T02:18:08.162Z,0
2016-05-23T02:19:08.165Z,0
2016-05-23T02:20:08.168Z,0
2016-05-23T02:21:08.171Z,0
2016-05-23T02:22:08.158Z,0
2016-05-23T02:23:07.707Z,0
2016-05-23T02:24:08.179Z,0
2016-05-23T02:25:08.197Z,0
2016-05-23T02:26:08.184Z,0
2016-05-23T02:27:08.030Z,0
2016-05-23T02:28:07.877Z,0
2016-05-23T02:29:08.660Z,0
2016-05-23T02:30:08.038Z,0
2016-05-23T02:31:08.198Z,0
2016-05-23T02:32:08.200Z,0
2016-05-23T02:33:08.188Z,0
2016-05-23T02:34:08.190Z,0
2016-05-23T02:35:08.037Z,0
2016-05-23T02:36:08.211Z,0
2016-05-23T02:37:08.213Z,0
2016-05-23T02:38:08.201Z,0
2016-05-23T02:39:08.203Z,0
2016-05-23T02:40:08.190Z,0
2016-05-23T02:41:08.208Z,0
2016-05-23T02:42:08.212Z,0
2016-05-23T02:43:08.214Z,0
2016-05-23T02:44:08.217Z,0
2016-05-23T02:45:08.219Z,0
2016-05-23T02:46:08.066Z,0
2016-05-23T02:47:08.241Z,0
2016-05-23T02:48:08.227Z,0
2016-05-23T02:49:08.230Z,0
2016-05-23T02:50:08.077Z,0
2016-05-23T02:51:08.080Z,0
2016-05-23T02:52:07.925Z,0
2016-05-23T02:53:08.225Z,0
2016-05-23T02:54:08.243Z,0
2016-05-23T02:55:08.230Z,0
2016-05-23T02:56:08.093Z,0
2016-05-23T02:57:08.236Z,0
2016-05-23T02:58:08.239Z,0
2016-05-23T02:59:08.273Z,0
2016-05-23T03:00:08.103Z,0
2016-05-23T03:01:08.262Z,0
2016-05-23T03:02:08.281Z,0
2016-05-23T03:03:08.252Z,0
2016-05-23T03:04:08.270Z,0
2016-05-23T03:05:08.101Z,0
2016-05-23T03:06:08.275Z,0
2016-05-23T03:07:08.262Z,0
2016-05-23T03:08:08.265Z,0
2016-05-23T03:09:08.268Z,4
2016-05-23T03:10:08.114Z,4
2016-05-23T03:11:08.258Z,4
2016-05-23T03:12:08.276Z,4
2016-05-23T03:13:08.264Z,4
2016-05-23T03:14:08.109Z,4
2016-05-23T03:15:08.862Z,8
2016-05-23T03:16:08.115Z,4
2016-05-23T03:17:08.275Z,4
2016-05-23T03:18:08.277Z,8
2016-05-23T03:19:08.138Z,8
2016-05-23T03:20:08.126Z,4
2016-05-23T03:21:08.285Z,8
2016-05-23T03:22:08.272Z,12
2016-05-23T03:23:08.291Z,8
2016-05-23T03:24:08.433Z,8
2016-05-23T03:25:08.139Z,12
2016-05-23T03:26:08.142Z,12
2016-05-23T03:27:08.317Z,16
2016-05-23T03:28:08.335Z,20
2016-05-23T03:29:08.353Z,20
2016-05-23T03:30:08.293Z,24
2016-05-23T03:31:08.312Z,28
2016-05-23T03:32:08.299Z,36
2016-05-23T03:33:08.301Z,40
2016-05-23T03:34:08.304Z,36
2016-05-23T03:35:08.150Z,40
2016-05-23T03:36:08.326Z,44
2016-05-23T03:37:08.156Z,48
2016-05-23T03:38:08.315Z,52
2016-05-23T03:39:08.161Z,52
2016-05-23T03:40:08.320Z,56
2016-05-23T03:41:08.323Z,64
2016-05-23T03:42:08.342Z,72
2016-05-23T03:43:08.344Z,88
2016-05-23T03:44:08.190Z,100
2016-05-23T03:45:08.053Z,116
2016-05-23T03:46:08.195Z,128
2016-05-23T03:47:08.339Z,148
2016-05-23T03:48:08.341Z,160
2016-05-23T03:49:08.345Z,168
2016-05-23T03:50:08.331Z,172
2016-05-23T03:51:08.334Z,176
2016-05-23T03:52:08.353Z,176
2016-05-23T03:53:08.043Z,172
2016-05-23T03:54:08.202Z,180
2016-05-23T03:55:08.189Z,188
2016-05-23T03:56:08.348Z,200
2016-05-23T03:57:08.350Z,204
2016-05-23T03:58:08.353Z,204
2016-05-23T03:59:08.059Z,204
2016-05-23T04:00:08.202Z,208
2016-05-23T04:01:08.377Z,208
2016-05-23T04:02:08.348Z,208
2016-05-23T04:03:08.351Z,208
2016-05-23T04:04:08.354Z,208
2016-05-23T04:05:08.201Z,204
2016-05-23T04:06:08.343Z,204
2016-05-23T04:07:08.206Z,208
2016-05-23T04:08:08.068Z,220
2016-05-23T04:09:08.368Z,232
2016-05-23T04:10:08.370Z,244
2016-05-23T04:11:08.373Z,264
2016-05-23T04:12:08.375Z,280
2016-05-23T04:13:08.222Z,292
2016-05-23T04:14:08.943Z,304
2016-05-23T04:15:08.634Z,312
2016-05-23T04:16:08.073Z,324
2016-05-23T04:17:08.373Z,324
2016-05-23T04:18:08.376Z,328
2016-05-23T04:19:08.394Z,340
2016-05-23T04:20:08.225Z,360
2016-05-23T04:21:08.400Z,384
2016-05-23T04:22:08.246Z,396
2016-05-23T04:23:08.389Z,396
2016-05-23T04:24:08.392Z,392
2016-05-23T04:25:08.222Z,384
2016-05-23T04:26:08.397Z,376
2016-05-23T04:27:08.385Z,368
2016-05-23T04:28:08.106Z,364
2016-05-23T04:29:08.702Z,352
2016-05-23T04:30:08.627Z,328
2016-05-23T04:31:08.410Z,304
2016-05-23T04:32:08.398Z,292
2016-05-23T04:33:08.259Z,296
2016-05-23T04:34:08.246Z,304
2016-05-23T04:35:08.406Z,308
2016-05-23T04:36:08.268Z,296
2016-05-23T04:37:08.271Z,288
2016-05-23T04:38:08.257Z,292
2016-05-23T04:39:08.417Z,296
2016-05-23T04:40:08.435Z,292
2016-05-23T04:41:08.422Z,288
2016-05-23T04:42:08.268Z,292
2016-05-23T04:43:08.271Z,292
2016-05-23T04:44:08.415Z,300
2016-05-23T04:45:08.558Z,312
2016-05-23T04:46:08.436Z,336
2016-05-23T04:47:08.282Z,364
2016-05-23T04:48:08.441Z,392
2016-05-23T04:49:08.444Z,408
2016-05-23T04:50:08.447Z,428
2016-05-23T04:51:08.278Z,452
2016-05-23T04:52:08.437Z,444
2016-05-23T04:53:08.282Z,392
2016-05-23T04:54:08.286Z,344
2016-05-23T04:55:08.444Z,328
2016-05-23T04:56:08.291Z,344
2016-05-23T04:57:08.278Z,376
2016-05-23T04:58:08.453Z,396
2016-05-23T04:59:08.549Z,416
2016-05-23T05:00:08.769Z,444
2016-05-23T05:01:08.305Z,476
2016-05-23T05:02:08.447Z,500
2016-05-23T05:03:08.294Z,536
2016-05-23T05:04:08.312Z,572
2016-05-23T05:05:08.455Z,620
2016-05-23T05:06:08.302Z,660
2016-05-23T05:07:08.461Z,740
2016-05-23T05:08:08.463Z,804
2016-05-23T05:09:08.451Z,856
2016-05-23T05:10:08.297Z,868
2016-05-23T05:11:08.315Z,856
2016-05-23T05:12:08.318Z,808
2016-05-23T05:13:08.321Z,748
2016-05-23T05:14:08.636Z,712
2016-05-23T05:15:08.920Z,692
2016-05-23T05:16:08.453Z,672
2016-05-23T05:17:08.316Z,644
2016-05-23T05:18:08.303Z,652
2016-05-23T05:19:08.478Z,692
2016-05-23T05:20:08.495Z,740
2016-05-23T05:21:08.468Z,784
2016-05-23T05:22:08.470Z,824
2016-05-23T05:23:08.488Z,852
2016-05-23T05:24:08.492Z,860
2016-05-23T05:25:08.494Z,860
2016-05-23T05:26:08.324Z,856
2016-05-23T05:27:08.328Z,852
2016-05-23T05:28:08.486Z,844
2016-05-23T05:29:08.489Z,824
2016-05-23T05:30:08.961Z,796
2016-05-23T05:31:08.494Z,784
2016-05-23T05:32:08.497Z,796
2016-05-23T05:33:08.499Z,844
2016-05-23T05:34:08.486Z,916
2016-05-23T05:35:08.333Z,980
2016-05-23T05:36:08.492Z,1048
2016-05-23T05:37:10.104Z,1120
2016-05-23T05:38:08.497Z,1192
2016-05-23T05:39:08.344Z,1232
2016-05-23T05:40:08.503Z,1232
2016-05-23T05:41:08.490Z,1232
2016-05-23T05:42:08.493Z,1256
2016-05-23T05:43:08.496Z,1320
2016-05-23T05:44:08.576Z,1428
2016-05-23T05:45:08.360Z,1548
2016-05-23T05:46:08.503Z,1732
2016-05-23T05:47:08.537Z,1980
2016-05-23T05:48:08.509Z,2120
2016-05-23T05:49:08.511Z,2208
2016-05-23T05:50:08.529Z,2320
2016-05-23T05:51:08.501Z,2440
2016-05-23T05:52:08.348Z,2492
2016-05-23T05:53:08.537Z,2488
2016-05-23T05:54:08.400Z,2492
2016-05-23T05:55:08.512Z,2512
2016-05-23T05:56:08.358Z,2588
2016-05-23T05:57:08.517Z,2724
2016-05-23T05:58:08.536Z,2864
2016-05-23T05:59:08.523Z,3036
2016-05-23T06:00:08.572Z,3316
2016-05-23T06:01:08.513Z,3568
2016-05-23T06:02:08.203Z,3684
2016-05-23T06:03:08.534Z,3688
2016-05-23T06:04:08.536Z,3704
2016-05-23T06:05:08.399Z,3808
2016-05-23T06:06:08.527Z,3872
2016-05-23T06:07:08.544Z,4088
2016-05-23T06:08:08.531Z,4156
2016-05-23T06:09:08.221Z,4192
2016-05-23T06:10:08.537Z,4300
2016-05-23T06:11:08.774Z,4480
2016-05-23T06:12:08.385Z,4564
2016-05-23T06:13:08.560Z,4808
2016-05-23T06:14:08.531Z,5156
2016-05-23T06:15:08.894Z,5428
2016-05-23T06:16:09.428Z,5604
2016-05-23T06:17:08.540Z,5756
2016-05-23T06:18:08.465Z,5816
2016-05-23T06:19:08.562Z,5624
2016-05-23T06:20:08.564Z,5344
2016-05-23T06:21:08.551Z,5088
2016-05-23T06:22:08.585Z,5068
2016-05-23T06:23:08.556Z,5176
2016-05-23T06:24:08.433Z,5252
2016-05-23T06:25:08.561Z,5244
2016-05-23T06:26:08.251Z,5132
2016-05-23T06:27:08.567Z,4964
2016-05-23T06:28:08.569Z,4756
2016-05-23T06:29:08.400Z,4488
2016-05-23T06:30:08.622Z,4236
2016-05-23T06:31:08.578Z,4080
2016-05-23T06:32:08.424Z,3940
2016-05-23T06:33:08.567Z,3728
2016-05-23T06:34:08.570Z,3488
2016-05-23T06:35:08.433Z,3296
2016-05-23T06:36:10.435Z,3232
2016-05-23T06:37:08.578Z,3276
2016-05-23T06:38:08.441Z,3408
2016-05-23T06:39:08.444Z,3556
2016-05-23T06:40:08.585Z,3708
2016-05-23T06:41:10.199Z,3824
2016-05-23T06:42:08.591Z,3872
2016-05-23T06:43:08.610Z,3936
2016-05-23T06:44:08.299Z,4028
2016-05-23T06:45:08.756Z,3952
2016-05-23T06:46:12.477Z,3728
2016-05-23T06:47:08.449Z,3432
2016-05-23T06:48:08.593Z,3232
2016-05-23T06:49:08.621Z,3048
2016-05-23T06:50:08.508Z,2944
2016-05-23T06:51:08.536Z,2856
2016-05-23T06:52:08.720Z,2760
2016-05-23T06:53:08.576Z,2636
2016-05-23T06:54:08.744Z,2536
2016-05-23T06:55:08.771Z,2464
2016-05-23T06:56:08.799Z,2440
2016-05-23T06:57:08.781Z,2416
2016-05-23T06:58:08.807Z,2412
2016-05-23T06:59:08.798Z,2356
2016-05-23T07:00:09.209Z,2348
2016-05-23T07:01:08.810Z,2360
2016-05-23T07:02:08.658Z,2348
2016-05-23T07:03:08.836Z,2320
2016-05-23T07:04:08.825Z,2364
2016-05-23T07:05:08.829Z,2420
2016-05-23T07:06:09.175Z,2500
2016-05-23T07:07:08.851Z,2588
2016-05-23T07:08:08.840Z,2668
2016-05-23T07:09:08.843Z,2676
2016-05-23T07:10:08.830Z,2540
2016-05-23T07:11:10.256Z,2400
2016-05-23T07:12:08.836Z,2200
2016-05-23T07:13:08.839Z,2076
2016-05-23T07:14:08.843Z,1940
2016-05-23T07:15:09.784Z,1844
2016-05-23T07:16:08.848Z,1760
2016-05-23T07:17:08.696Z,1664
2016-05-23T07:18:08.855Z,1696
2016-05-23T07:19:08.701Z,1724
2016-05-23T07:20:08.704Z,1688
2016-05-23T07:21:08.863Z,1620
2016-05-23T07:22:08.882Z,1572
2016-05-23T07:23:08.885Z,1420
2016-05-23T07:24:08.871Z,1272
2016-05-23T07:25:08.874Z,1204
2016-05-23T07:26:08.860Z,1184
2016-05-23T07:27:08.863Z,1220
2016-05-23T07:28:08.865Z,1240
2016-05-23T07:29:08.884Z,1176
2016-05-23T07:30:08.731Z,1120
2016-05-23T07:31:08.874Z,1128
2016-05-23T07:32:08.861Z,1148
2016-05-23T07:33:08.723Z,1168
2016-05-23T07:34:08.741Z,1232
2016-05-23T07:35:08.760Z,1352
2016-05-23T07:36:08.731Z,1580
2016-05-23T07:37:08.875Z,1828
2016-05-23T07:38:08.878Z,2088
2016-05-23T07:39:08.881Z,2268
2016-05-23T07:40:08.883Z,2368
2016-05-23T07:41:10.776Z,2304
2016-05-23T07:42:08.872Z,2192
2016-05-23T07:43:08.891Z,2112
2016-05-23T07:44:08.908Z,2080
2016-05-23T07:45:09.022Z,1996
2016-05-23T07:46:08.914Z,1964
2016-05-23T07:47:08.745Z,2036
2016-05-23T07:48:08.888Z,2048
2016-05-23T07:49:08.938Z,2012
2016-05-23T07:50:08.753Z,1968
2016-05-23T07:51:08.944Z,1940
2016-05-23T07:52:08.915Z,1936
2016-05-23T07:53:08.746Z,1960
2016-05-23T07:54:08.920Z,2032
2016-05-23T07:55:08.923Z,1940
2016-05-23T07:56:08.926Z,1836
2016-05-23T07:57:08.757Z,1964
2016-05-23T07:58:08.931Z,2108
2016-05-23T07:59:08.934Z,2088
2016-05-23T08:00:09.530Z,1924
2016-05-23T08:01:08.768Z,1796
2016-05-23T08:02:08.926Z,1812
2016-05-23T08:03:08.617Z,1888
2016-05-23T08:04:08.759Z,1988
2016-05-23T08:05:08.762Z,2076
2016-05-23T08:06:08.937Z,2160
2016-05-23T08:07:08.784Z,2192
2016-05-23T08:08:08.614Z,2208
2016-05-23T08:09:08.930Z,2176
2016-05-23T08:10:08.948Z,2144
2016-05-23T08:11:09.686Z,2124
2016-05-23T08:12:08.922Z,2236
2016-05-23T08:13:08.925Z,2348
2016-05-23T08:14:08.928Z,2336
2016-05-23T08:15:08.774Z,2280
2016-05-23T08:16:08.776Z,2284
2016-05-23T08:17:08.779Z,2288
2016-05-23T08:18:08.938Z,2296
2016-05-23T08:19:08.941Z,2264
2016-05-23T08:20:08.960Z,2164
2016-05-23T08:21:09.399Z,2108
2016-05-23T08:22:08.933Z,2088
2016-05-23T08:23:08.935Z,2124
2016-05-23T08:24:08.782Z,2184
2016-05-23T08:25:08.940Z,2288
2016-05-23T08:26:08.944Z,2392
2016-05-23T08:27:08.774Z,2520
2016-05-23T08:28:08.809Z,2736
2016-05-23T08:29:08.936Z,3016
2016-05-23T08:30:09.204Z,3268
2016-05-23T08:31:08.957Z,3392
2016-05-23T08:32:08.945Z,3484
2016-05-23T08:33:08.790Z,3532
2016-05-23T08:34:08.965Z,3472
2016-05-23T08:35:08.953Z,3420
2016-05-23T08:36:08.956Z,3400
2016-05-23T08:37:08.958Z,3332
2016-05-23T08:38:08.804Z,3236
2016-05-23T08:39:08.792Z,3208
2016-05-23T08:40:08.997Z,3268
2016-05-23T08:41:08.969Z,3440
2016-05-23T08:42:08.955Z,3684
2016-05-23T08:43:08.958Z,3844
2016-05-23T08:44:08.977Z,3956
2016-05-23T08:45:09.370Z,3872
2016-05-23T08:46:08.842Z,3760
2016-05-23T08:47:08.969Z,3740
2016-05-23T08:48:08.988Z,3788
2016-05-23T08:49:09.006Z,3940
2016-05-23T08:50:08.977Z,4088
2016-05-23T08:51:08.838Z,4072
2016-05-23T08:52:09.013Z,3868
2016-05-23T08:53:08.985Z,3632
2016-05-23T08:54:08.660Z,3496
2016-05-23T08:55:09.007Z,3380
2016-05-23T08:56:09.010Z,3336
2016-05-23T08:57:08.824Z,3376
2016-05-23T08:58:08.999Z,3484
2016-05-23T08:59:09.017Z,3628
2016-05-23T09:00:08.879Z,3772
2016-05-23T09:01:08.695Z,3916
2016-05-23T09:02:09.025Z,4024
2016-05-23T09:03:08.825Z,4020
2016-05-23T09:04:08.999Z,3972
2016-05-23T09:05:09.002Z,3900
2016-05-23T09:06:08.848Z,3984
2016-05-23T09:07:08.695Z,4108
2016-05-23T09:08:09.010Z,4188
2016-05-23T09:09:08.981Z,4316
2016-05-23T09:10:08.844Z,4420
2016-05-23T09:11:09.002Z,4352
2016-05-23T09:12:09.005Z,4048
2016-05-23T09:13:09.023Z,4184
2016-05-23T09:14:08.995Z,4464
2016-05-23T09:15:08.889Z,4640
2016-05-23T09:16:09.031Z,4804
2016-05-23T09:17:09.019Z,4876
2016-05-23T09:18:08.709Z,4940
2016-05-23T09:19:09.025Z,5152
2016-05-23T09:20:09.042Z,5392
2016-05-23T09:21:08.733Z,5588
2016-05-23T09:22:12.657Z,5748
2016-05-23T09:23:09.050Z,6036
2016-05-23T09:24:09.021Z,6224
2016-05-23T09:25:09.149Z,6080
2016-05-23T09:26:09.058Z,6016
2016-05-23T09:27:09.593Z,5952
2016-05-23T09:28:08.892Z,5816
2016-05-23T09:29:08.879Z,5996
2016-05-23T09:30:08.898Z,6188
2016-05-23T09:31:08.900Z,6280
2016-05-23T09:32:10.184Z,6344
2016-05-23T09:33:09.062Z,6588
2016-05-23T09:34:09.033Z,6896
2016-05-23T09:35:09.098Z,6936
2016-05-23T09:36:08.882Z,7064
2016-05-23T09:37:09.728Z,7184
2016-05-23T09:38:08.903Z,7172
2016-05-23T09:39:09.078Z,7288
2016-05-23T09:40:09.049Z,7500
2016-05-23T09:41:09.067Z,6912
2016-05-23T09:42:09.086Z,6152
2016-05-23T09:43:09.073Z,5848
2016-05-23T09:44:09.076Z,5944
2016-05-23T09:45:09.188Z,5648
2016-05-23T09:46:09.081Z,5404
2016-05-23T09:47:09.083Z,5592
2016-05-23T09:48:08.947Z,6504
2016-05-23T09:49:09.074Z,7340
2016-05-23T09:50:09.091Z,7192
2016-05-23T09:51:09.079Z,6396
2016-05-23T09:52:09.082Z,5980
2016-05-23T09:53:09.085Z,5780
2016-05-23T09:54:09.087Z,5588
2016-05-23T09:55:09.090Z,5400
2016-05-23T09:56:09.093Z,5548
2016-05-23T09:57:09.657Z,5888
2016-05-23T09:58:09.098Z,5784
2016-05-23T09:59:09.101Z,6036
2016-05-23T10:00:08.775Z,6880
2016-05-23T10:01:09.106Z,7920
2016-05-23T10:02:09.124Z,8880
2016-05-23T10:03:08.955Z,9784
2016-05-23T10:04:08.958Z,10516
2016-05-23T10:05:08.945Z,10848
2016-05-23T10:06:09.120Z,10800
2016-05-23T10:07:09.122Z,10688
2016-05-23T10:08:08.953Z,10532
2016-05-23T10:09:09.111Z,10356
2016-05-23T10:10:09.114Z,10224
2016-05-23T10:11:09.148Z,10232
2016-05-23T10:12:09.120Z,10352
2016-05-23T10:13:09.138Z,10444
2016-05-23T10:14:08.672Z,10372
2016-05-23T10:15:08.987Z,10124
2016-05-23T10:16:08.990Z,9880
2016-05-23T10:17:09.008Z,9576
2016-05-23T10:18:09.166Z,9336
2016-05-23T10:19:08.983Z,9056
2016-05-23T10:20:09.141Z,8916
2016-05-23T10:21:09.144Z,8600
2016-05-23T10:22:09.146Z,8248
2016-05-23T10:23:09.133Z,8036
2016-05-23T10:24:09.511Z,8036
2016-05-23T10:25:09.155Z,7928
2016-05-23T10:26:09.173Z,7720
2016-05-23T10:27:09.160Z,7624
2016-05-23T10:28:09.163Z,7596
2016-05-23T10:29:10.103Z,7820
2016-05-23T10:30:09.184Z,8016
2016-05-23T10:31:09.171Z,8272
2016-05-23T10:32:09.174Z,8476
2016-05-23T10:33:09.177Z,8420
2016-05-23T10:34:09.022Z,7976
2016-05-23T10:35:09.181Z,7400
2016-05-23T10:36:09.168Z,7128
2016-05-23T10:37:09.031Z,7032
2016-05-23T10:38:09.064Z,7072
2016-05-23T10:39:10.036Z,7224
2016-05-23T10:40:09.242Z,7460
2016-05-23T10:41:09.198Z,7676
2016-05-23T10:42:09.044Z,7864
2016-05-23T10:43:09.203Z,8092
2016-05-23T10:44:09.221Z,8396
2016-05-23T10:45:09.989Z,8688
2016-05-23T10:46:09.227Z,8960
2016-05-23T10:47:09.073Z,9080
2016-05-23T10:48:09.232Z,9064
2016-05-23T10:49:10.156Z,8968
2016-05-23T10:50:09.081Z,8792
2016-05-23T10:51:09.241Z,8536
2016-05-23T10:52:09.071Z,8408
2016-05-23T10:53:09.246Z,8580
2016-05-23T10:54:08.952Z,8848
2016-05-23T10:55:09.267Z,8904
2016-05-23T10:56:09.254Z,9036
2016-05-23T10:57:09.115Z,9360
2016-05-23T10:58:08.977Z,9840
2016-05-23T10:59:09.246Z,10180
2016-05-23T11:00:09.577Z,10428
2016-05-23T11:01:09.298Z,10692
2016-05-23T11:02:09.098Z,10936
2016-05-23T11:03:09.273Z,11220
2016-05-23T11:04:09.119Z,11420
2016-05-23T11:05:08.824Z,11512
2016-05-23T11:06:09.265Z,11520
2016-05-23T11:07:09.299Z,11580
2016-05-23T11:08:09.287Z,11632
2016-05-23T11:09:09.335Z,11940
2016-05-23T11:10:09.307Z,12496
2016-05-23T11:11:09.278Z,12772
2016-05-23T11:12:09.297Z,12460
2016-05-23T11:13:09.300Z,12432
2016-05-23T11:14:09.302Z,11792
2016-05-23T11:15:09.976Z,10880
2016-05-23T11:16:09.308Z,9872
2016-05-23T11:17:09.170Z,9488
2016-05-23T11:18:09.314Z,9516
2016-05-23T11:19:09.316Z,10132
2016-05-23T11:20:09.006Z,10100
2016-05-23T11:21:09.321Z,10204
2016-05-23T11:22:09.167Z,10664
2016-05-23T11:23:09.170Z,10184
2016-05-23T11:24:09.344Z,9156
2016-05-23T11:25:09.332Z,8512
2016-05-23T11:26:09.366Z,8792
2016-05-23T11:27:09.056Z,9196
2016-05-23T11:28:09.340Z,8680
2016-05-23T11:29:09.343Z,8124
2016-05-23T11:30:10.033Z,7828
2016-05-23T11:31:09.379Z,7960
2016-05-23T11:32:09.397Z,8632
2016-05-23T11:33:09.400Z,9820
2016-05-23T11:34:09.372Z,10720
2016-05-23T11:35:09.421Z,11188
2016-05-23T11:36:09.377Z,11544
2016-05-23T11:37:09.411Z,11680
2016-05-23T11:38:09.382Z,11756
2016-05-23T11:39:09.401Z,11852
2016-05-23T11:40:09.403Z,12072
2016-05-23T11:41:09.234Z,12368
2016-05-23T11:42:09.393Z,12704
2016-05-23T11:43:09.255Z,13044
2016-05-23T11:44:09.398Z,13420
2016-05-23T11:45:09.557Z,13720
2016-05-23T11:46:09.419Z,13848
2016-05-23T11:47:09.422Z,13904
2016-05-23T11:48:09.409Z,13780
2016-05-23T11:49:09.427Z,13820
2016-05-23T11:50:09.399Z,13944
2016-05-23T11:51:09.417Z,14092
2016-05-23T11:52:09.420Z,14368
2016-05-23T11:53:09.267Z,14564
2016-05-23T11:54:09.425Z,14884
2016-05-23T11:55:09.272Z,14940
2016-05-23T11:56:09.461Z,14780
2016-05-23T11:57:09.433Z,14524
2016-05-23T11:58:09.421Z,14016
2016-05-23T11:59:09.455Z,13484
2016-05-23T12:00:09.317Z,13088
2016-05-23T12:01:09.506Z,12744
2016-05-23T12:02:09.477Z,12376
2016-05-23T12:03:09.355Z,12184
2016-05-23T12:04:09.312Z,11532
2016-05-23T12:05:09.486Z,11128
2016-05-23T12:06:09.474Z,11244
2016-05-23T12:07:09.460Z,11000
2016-05-23T12:08:09.479Z,10352
2016-05-23T12:09:09.482Z,9356
2016-05-23T12:10:09.360Z,8572
2016-05-23T12:11:09.487Z,8212
2016-05-23T12:12:09.489Z,7584
2016-05-23T12:13:09.211Z,7368
2016-05-23T12:14:09.495Z,7216
2016-05-23T12:15:09.513Z,7040
2016-05-23T12:16:09.515Z,6800
2016-05-23T12:17:09.565Z,6620
2016-05-23T12:18:09.520Z,6472
2016-05-23T12:19:09.508Z,6092
2016-05-23T12:20:09.214Z,5664
2016-05-23T12:21:09.529Z,5572
2016-05-23T12:22:09.532Z,5796
2016-05-23T12:23:09.519Z,6148
2016-05-23T12:24:09.537Z,6308
2016-05-23T12:25:09.383Z,6068
2016-05-23T12:26:09.542Z,5980
2016-05-23T12:27:09.545Z,6148
2016-05-23T12:28:09.236Z,6396
2016-05-23T12:29:09.535Z,6668
2016-05-23T12:30:09.413Z,6852
2016-05-23T12:31:09.556Z,6780
2016-05-23T12:32:09.668Z,6560
2016-05-23T12:33:09.577Z,6176
2016-05-23T12:34:09.407Z,5596
2016-05-23T12:35:09.410Z,5100
2016-05-23T12:36:09.366Z,4740
2016-05-23T12:37:09.572Z,4608
2016-05-23T12:38:09.575Z,4800
2016-05-23T12:39:09.421Z,4984
2016-05-23T12:40:09.595Z,5208
2016-05-23T12:41:09.426Z,5000
2016-05-23T12:42:09.585Z,4704
2016-05-23T12:43:09.682Z,4676
2016-05-23T12:44:09.591Z,4620
2016-05-23T12:45:09.843Z,4612
2016-05-23T12:46:09.581Z,4764
2016-05-23T12:47:09.599Z,4996
2016-05-23T12:48:09.602Z,5156
2016-05-23T12:49:09.604Z,5276
2016-05-23T12:50:09.622Z,5588
2016-05-23T12:51:09.610Z,6076
2016-05-23T12:52:09.456Z,6368
2016-05-23T12:53:10.178Z,6212
2016-05-23T12:54:09.650Z,6036
2016-05-23T12:55:09.620Z,5752
2016-05-23T12:56:09.622Z,5400
2016-05-23T12:57:12.625Z,5084
2016-05-23T12:58:09.300Z,4832
2016-05-23T12:59:09.460Z,4540
2016-05-23T13:00:09.633Z,4488
2016-05-23T13:01:09.636Z,4760
2016-05-23T13:02:09.499Z,5112
2016-05-23T13:03:09.627Z,5324
2016-05-23T13:04:09.473Z,5304
2016-05-23T13:05:09.647Z,5008
2016-05-23T13:06:09.494Z,4452
2016-05-23T13:07:09.481Z,4036
2016-05-23T13:08:09.655Z,3824
2016-05-23T13:09:09.643Z,3820
2016-05-23T13:10:09.490Z,4000
2016-05-23T13:11:09.585Z,4128
2016-05-23T13:12:09.666Z,4188
2016-05-23T13:13:09.684Z,4364
2016-05-23T13:14:09.671Z,4496
2016-05-23T13:15:09.533Z,4580
2016-05-23T13:16:09.756Z,4656
2016-05-23T13:17:09.742Z,4708
2016-05-23T13:18:09.526Z,4612
2016-05-23T13:19:09.685Z,4532
2016-05-23T13:20:09.359Z,4620
2016-05-23T13:21:09.519Z,4620
2016-05-23T13:22:09.678Z,4704
2016-05-23T13:23:09.680Z,4884
2016-05-23T13:24:09.698Z,4856
2016-05-23T13:25:09.686Z,4776
2016-05-23T13:26:09.533Z,4668
2016-05-23T13:27:09.675Z,4608
2016-05-23T13:28:09.678Z,4456
2016-05-23T13:29:09.697Z,4316
2016-05-23T13:30:10.136Z,4184
2016-05-23T13:31:09.546Z,3972
2016-05-23T13:32:09.704Z,3792
2016-05-23T13:33:09.708Z,3736
2016-05-23T13:34:09.554Z,3716
2016-05-23T13:35:09.727Z,3700
2016-05-23T13:36:09.716Z,3784
2016-05-23T13:37:09.702Z,3700
2016-05-23T13:38:09.704Z,3560
2016-05-23T13:39:09.552Z,3604
2016-05-23T13:40:09.726Z,3492
2016-05-23T13:41:09.557Z,3352